Terminal Aerodrome Forecast
Issued by NWS

Home | Current Version | Previous Version | Text Only | Print | Product List | Glossary On
Versions: 1 2 3 4 5 6 7 8 9 10 11 12 13 14 15 16 17 18 19 20
000
FTUS43 KTOP 170520
TAFMHK
TAF
KMHK 170520Z 1706/1806 18004KT P6SM BKN150
     FM171000 19007KT P6SM SCT020 BKN035
     FM171500 29012G17KT P6SM SCT200
     FM180100 VRB03KT P6SM SKC=

USA.gov is the U.S. government's official web portal to all federal, state and local government web resources and services.